sensor_id;sensor_type;location;lat;lon;timestamp;P1;durP1;ratioP1;P2;durP2;ratioP2
7693;SDS011;3889;48.162;11.510;2023-02-28T00:01:26;4.67;;;4.20;;
7693;SDS011;3889;48.162;11.510;2023-02-28T00:03:54;5.30;;;4.45;;
7693;SDS011;3889;48.162;11.510;2023-02-28T00:06:22;4.38;;;3.97;;
7693;SDS011;3889;48.162;11.510;2023-02-28T00:08:52;4.85;;;4.25;;
7693;SDS011;3889;48.162;11.510;2023-02-28T00:11:20;5.38;;;4.60;;
7693;SDS011;3889;48.162;11.510;2023-02-28T00:13:48;5.50;;;4.68;;
7693;SDS011;3889;48.162;11.510;2023-02-28T00:16:17;5.20;;;4.70;;
7693;SDS011;3889;48.162;11.510;2023-02-28T00:18:46;5.45;;;4.90;;
7693;SDS011;3889;48.162;11.510;2023-02-28T00:21:14;5.25;;;4.60;;
7693;SDS011;3889;48.162;11.510;2023-02-28T00:23:42;4.77;;;4.37;;
7693;SDS011;3889;48.162;11.510;2023-02-28T00:26:12;4.97;;;4.47;;
7693;SDS011;3889;48.162;11.510;2023-02-28T00:28:40;5.00;;;4.50;;
7693;SDS011;3889;48.162;11.510;2023-02-28T00:31:07;4.97;;;4.57;;
7693;SDS011;3889;48.162;11.510;2023-02-28T00:33:35;5.70;;;4.95;;
7693;SDS011;3889;48.162;11.510;2023-02-28T00:36:04;6.03;;;4.68;;
7693;SDS011;3889;48.162;11.510;2023-02-28T00:38:33;5.50;;;5.00;;
7693;SDS011;3889;48.162;11.510;2023-02-28T00:41:01;5.32;;;4.75;;
7693;SDS011;3889;48.162;11.510;2023-02-28T00:43:33;5.38;;;4.88;;
7693;SDS011;3889;48.162;11.510;2023-02-28T00:46:02;5.90;;;5.30;;
7693;SDS011;3889;48.162;11.510;2023-02-28T00:48:30;5.18;;;4.68;;
7693;SDS011;3889;48.162;11.510;2023-02-28T00:50:58;5.55;;;5.05;;
7693;SDS011;3889;48.162;11.510;2023-02-28T00:53:27;5.60;;;5.10;;
7693;SDS011;3889;48.162;11.510;2023-02-28T00:55:54;5.10;;;4.60;;
7693;SDS011;3889;48.162;11.510;2023-02-28T00:58:22;5.30;;;4.78;;
7693;SDS011;3889;48.162;11.510;2023-02-28T01:00:52;6.47;;;5.35;;
7693;SDS011;3889;48.162;11.510;2023-02-28T01:03:20;5.57;;;5.07;;
7693;SDS011;3889;48.162;11.510;2023-02-28T01:05:48;6.20;;;5.00;;
7693;SDS011;3889;48.162;11.510;2023-02-28T01:08:16;5.80;;;5.20;;
7693;SDS011;3889;48.162;11.510;2023-02-28T01:10:44;5.45;;;4.78;;
7693;SDS011;3889;48.162;11.510;2023-02-28T01:13:12;5.72;;;5.13;;
7693;SDS011;3889;48.162;11.510;2023-02-28T01:15:41;5.57;;;5.07;;
7693;SDS011;3889;48.162;11.510;2023-02-28T01:18:13;5.75;;;5.22;;
7693;SDS011;3889;48.162;11.510;2023-02-28T01:20:41;5.30;;;4.80;;
7693;SDS011;3889;48.162;11.510;2023-02-28T01:23:09;5.10;;;4.70;;
7693;SDS011;3889;48.162;11.510;2023-02-28T01:25:37;5.80;;;5.20;;
7693;SDS011;3889;48.162;11.510;2023-02-28T01:28:05;6.22;;;5.47;;
7693;SDS011;3889;48.162;11.510;2023-02-28T01:30:33;5.50;;;5.00;;
7693;SDS011;3889;48.162;11.510;2023-02-28T01:33:01;5.83;;;5.33;;
7693;SDS011;3889;48.162;11.510;2023-02-28T01:35:33;6.30;;;5.68;;
7693;SDS011;3889;48.162;11.510;2023-02-28T01:38:01;6.03;;;5.30;;
7693;SDS011;3889;48.162;11.510;2023-02-28T01:40:46;5.97;;;5.38;;
7693;SDS011;3889;48.162;11.510;2023-02-28T01:43:16;6.45;;;5.85;;
7693;SDS011;3889;48.162;11.510;2023-02-28T01:45:48;5.60;;;5.10;;
7693;SDS011;3889;48.162;11.510;2023-02-28T01:48:16;5.82;;;5.22;;
7693;SDS011;3889;48.162;11.510;2023-02-28T01:50:47;5.70;;;5.18;;
7693;SDS011;3889;48.162;11.510;2023-02-28T01:53:16;5.55;;;5.05;;
7693;SDS011;3889;48.162;11.510;2023-02-28T01:55:47;6.30;;;5.70;;
7693;SDS011;3889;48.162;11.510;2023-02-28T01:58:18;6.13;;;5.53;;
7693;SDS011;3889;48.162;11.510;2023-02-28T02:00:46;6.30;;;5.70;;
7693;SDS011;3889;48.162;11.510;2023-02-28T02:03:14;6.28;;;5.68;;
7693;SDS011;3889;48.162;11.510;2023-02-28T02:05:46;6.43;;;5.75;;
7693;SDS011;3889;48.162;11.510;2023-02-28T02:08:16;6.60;;;6.00;;
7693;SDS011;3889;48.162;11.510;2023-02-28T02:10:47;6.20;;;5.57;;
7693;SDS011;3889;48.162;11.510;2023-02-28T02:13:20;6.18;;;5.57;;
7693;SDS011;3889;48.162;11.510;2023-02-28T02:16:08;6.68;;;5.80;;
7693;SDS011;3889;48.162;11.510;2023-02-28T02:18:43;6.32;;;5.72;;
7693;SDS011;3889;48.162;11.510;2023-02-28T02:24:24;6.50;;;5.73;;
7693;SDS011;3889;48.162;11.510;2023-02-28T02:27:20;6.35;;;5.75;;
7693;SDS011;3889;48.162;11.510;2023-02-28T02:30:00;6.47;;;5.88;;
7693;SDS011;3889;48.162;11.510;2023-02-28T02:33:05;6.40;;;5.72;;
7693;SDS011;3889;48.162;11.510;2023-02-28T02:35:47;6.28;;;5.68;;
7693;SDS011;3889;48.162;11.510;2023-02-28T02:38:20;6.28;;;5.68;;
7693;SDS011;3889;48.162;11.510;2023-02-28T02:41:00;6.63;;;6.03;;
7693;SDS011;3889;48.162;11.510;2023-02-28T02:43:34;6.13;;;5.63;;
7693;SDS011;3889;48.162;11.510;2023-02-28T02:46:07;6.57;;;5.97;;
7693;SDS011;3889;48.162;11.510;2023-02-28T02:48:41;6.93;;;6.22;;
7693;SDS011;3889;48.162;11.510;2023-02-28T02:51:14;6.57;;;5.97;;
7693;SDS011;3889;48.162;11.510;2023-02-28T02:53:44;6.85;;;6.15;;
7693;SDS011;3889;48.162;11.510;2023-02-28T02:56:16;7.03;;;6.43;;
7693;SDS011;3889;48.162;11.510;2023-02-28T02:58:48;6.50;;;5.90;;
7693;SDS011;3889;48.162;11.510;2023-02-28T03:01:18;7.53;;;6.82;;
7693;SDS011;3889;48.162;11.510;2023-02-28T03:03:55;6.80;;;6.20;;
7693;SDS011;3889;48.162;11.510;2023-02-28T03:06:25;6.95;;;6.35;;
7693;SDS011;3889;48.162;11.510;2023-02-28T03:08:53;7.60;;;6.78;;
7693;SDS011;3889;48.162;11.510;2023-02-28T03:11:21;7.40;;;6.70;;
7693;SDS011;3889;48.162;11.510;2023-02-28T03:14:10;7.72;;;6.93;;
7693;SDS011;3889;48.162;11.510;2023-02-28T03:20:12;7.30;;;6.60;;
7693;SDS011;3889;48.162;11.510;2023-02-28T03:22:54;7.65;;;6.93;;
7693;SDS011;3889;48.162;11.510;2023-02-28T03:25:30;8.33;;;7.53;;
7693;SDS011;3889;48.162;11.510;2023-02-28T03:28:06;8.25;;;7.45;;
7693;SDS011;3889;48.162;11.510;2023-02-28T03:30:40;8.03;;;7.23;;
7693;SDS011;3889;48.162;11.510;2023-02-28T03:33:13;8.35;;;7.60;;
7693;SDS011;3889;48.162;11.510;2023-02-28T03:35:45;8.37;;;7.57;;
7693;SDS011;3889;48.162;11.510;2023-02-28T03:38:20;8.23;;;7.50;;
7693;SDS011;3889;48.162;11.510;2023-02-28T03:40:55;8.50;;;7.70;;
7693;SDS011;3889;48.162;11.510;2023-02-28T03:43:29;8.63;;;7.75;;
7693;SDS011;3889;48.162;11.510;2023-02-28T03:46:01;8.20;;;7.50;;
7693;SDS011;3889;48.162;11.510;2023-02-28T03:48:35;8.60;;;7.80;;
7693;SDS011;3889;48.162;11.510;2023-02-28T03:51:06;9.05;;;8.15;;
7693;SDS011;3889;48.162;11.510;2023-02-28T03:53:38;9.00;;;8.10;;
7693;SDS011;3889;48.162;11.510;2023-02-28T03:56:11;9.23;;;8.43;;
7693;SDS011;3889;48.162;11.510;2023-02-28T03:58:44;9.40;;;8.50;;
7693;SDS011;3889;48.162;11.510;2023-02-28T04:01:19;9.90;;;9.00;;
7693;SDS011;3889;48.162;11.510;2023-02-28T04:03:49;10.20;;;9.20;;
7693;SDS011;3889;48.162;11.510;2023-02-28T04:06:18;10.02;;;9.13;;
7693;SDS011;3889;48.162;11.510;2023-02-28T04:08:49;9.93;;;9.10;;
7693;SDS011;3889;48.162;11.510;2023-02-28T04:11:22;10.10;;;9.20;;
7693;SDS011;3889;48.162;11.510;2023-02-28T04:13:54;10.48;;;9.57;;
7693;SDS011;3889;48.162;11.510;2023-02-28T04:16:21;10.20;;;9.20;;
7693;SDS011;3889;48.162;11.510;2023-02-28T04:19:00;10.73;;;9.73;;
7693;SDS011;3889;48.162;11.510;2023-02-28T04:21:29;9.93;;;9.02;;
7693;SDS011;3889;48.162;11.510;2023-02-28T04:24:00;10.00;;;9.10;;
7693;SDS011;3889;48.162;11.510;2023-02-28T04:26:28;10.35;;;9.45;;
7693;SDS011;3889;48.162;11.510;2023-02-28T04:28:57;10.27;;;9.27;;
7693;SDS011;3889;48.162;11.510;2023-02-28T04:31:25;10.63;;;9.68;;
7693;SDS011;3889;48.162;11.510;2023-02-28T04:33:54;11.48;;;10.38;;
7693;SDS011;3889;48.162;11.510;2023-02-28T04:36:22;11.40;;;10.40;;
7693;SDS011;3889;48.162;11.510;2023-02-28T04:38:50;10.70;;;9.70;;
7693;SDS011;3889;48.162;11.510;2023-02-28T04:41:19;11.35;;;10.25;;
7693;SDS011;3889;48.162;11.510;2023-02-28T04:43:48;10.90;;;9.90;;
7693;SDS011;3889;48.162;11.510;2023-02-28T04:46:17;10.88;;;9.88;;
7693;SDS011;3889;48.162;11.510;2023-02-28T04:48:46;11.13;;;10.13;;
7693;SDS011;3889;48.162;11.510;2023-02-28T04:51:14;11.13;;;10.05;;
7693;SDS011;3889;48.162;11.510;2023-02-28T04:53:44;11.43;;;10.32;;
7693;SDS011;3889;48.162;11.510;2023-02-28T04:56:12;11.25;;;10.23;;
7693;SDS011;3889;48.162;11.510;2023-02-28T04:58:43;11.45;;;10.45;;
7693;SDS011;3889;48.162;11.510;2023-02-28T05:01:19;10.85;;;9.75;;
7693;SDS011;3889;48.162;11.510;2023-02-28T05:03:49;11.60;;;10.60;;
7693;SDS011;3889;48.162;11.510;2023-02-28T05:06:18;11.90;;;10.80;;
7693;SDS011;3889;48.162;11.510;2023-02-28T05:08:47;11.73;;;10.65;;
7693;SDS011;3889;48.162;11.510;2023-02-28T05:11:16;11.30;;;10.30;;
7693;SDS011;3889;48.162;11.510;2023-02-28T05:13:47;11.88;;;10.68;;
7693;SDS011;3889;48.162;11.510;2023-02-28T05:16:15;12.27;;;11.18;;
7693;SDS011;3889;48.162;11.510;2023-02-28T05:18:44;12.48;;;11.38;;
7693;SDS011;3889;48.162;11.510;2023-02-28T05:21:20;12.98;;;11.88;;
7693;SDS011;3889;48.162;11.510;2023-02-28T05:23:55;13.93;;;12.55;;
7693;SDS011;3889;48.162;11.510;2023-02-28T05:26:24;13.77;;;12.57;;
7693;SDS011;3889;48.162;11.510;2023-02-28T05:28:55;14.02;;;12.73;;
7693;SDS011;3889;48.162;11.510;2023-02-28T05:31:23;13.80;;;12.60;;
7693;SDS011;3889;48.162;11.510;2023-02-28T05:33:51;13.68;;;12.48;;
7693;SDS011;3889;48.162;11.510;2023-02-28T05:36:19;14.48;;;13.15;;
7693;SDS011;3889;48.162;11.510;2023-02-28T05:38:47;14.35;;;13.00;;
7693;SDS011;3889;48.162;11.510;2023-02-28T05:41:16;13.80;;;12.50;;
7693;SDS011;3889;48.162;11.510;2023-02-28T05:43:45;15.80;;;14.25;;
7693;SDS011;3889;48.162;11.510;2023-02-28T05:46:15;15.10;;;13.73;;
7693;SDS011;3889;48.162;11.510;2023-02-28T05:48:46;15.52;;;14.10;;
7693;SDS011;3889;48.162;11.510;2023-02-28T05:51:15;14.60;;;13.30;;
7693;SDS011;3889;48.162;11.510;2023-02-28T05:53:43;14.50;;;13.10;;
7693;SDS011;3889;48.162;11.510;2023-02-28T05:56:11;15.05;;;13.65;;
7693;SDS011;3889;48.162;11.510;2023-02-28T05:58:39;15.23;;;13.93;;
7693;SDS011;3889;48.162;11.510;2023-02-28T06:01:21;14.50;;;13.30;;
7693;SDS011;3889;48.162;11.510;2023-02-28T06:03:57;16.00;;;14.50;;
7693;SDS011;3889;48.162;11.510;2023-02-28T06:06:25;16.55;;;15.05;;
7693;SDS011;3889;48.162;11.510;2023-02-28T06:08:53;15.65;;;14.15;;
7693;SDS011;3889;48.162;11.510;2023-02-28T06:11:21;16.60;;;15.10;;
7693;SDS011;3889;48.162;11.510;2023-02-28T06:13:54;16.85;;;15.25;;
7693;SDS011;3889;48.162;11.510;2023-02-28T06:16:24;16.73;;;15.23;;
7693;SDS011;3889;48.162;11.510;2023-02-28T06:18:52;16.25;;;14.65;;
7693;SDS011;3889;48.162;11.510;2023-02-28T06:21:22;16.27;;;14.77;;
7693;SDS011;3889;48.162;11.510;2023-02-28T06:23:50;15.90;;;14.40;;
7693;SDS011;3889;48.162;11.510;2023-02-28T06:26:18;15.90;;;14.40;;
7693;SDS011;3889;48.162;11.510;2023-02-28T06:28:46;16.83;;;15.23;;
7693;SDS011;3889;48.162;11.510;2023-02-28T06:31:14;16.25;;;14.85;;
7693;SDS011;3889;48.162;11.510;2023-02-28T06:33:45;17.10;;;15.57;;
7693;SDS011;3889;48.162;11.510;2023-02-28T06:36:14;17.25;;;15.70;;
7693;SDS011;3889;48.162;11.510;2023-02-28T06:38:43;17.60;;;16.10;;
7693;SDS011;3889;48.162;11.510;2023-02-28T06:41:11;17.60;;;15.70;;
7693;SDS011;3889;48.162;11.510;2023-02-28T06:43:39;17.58;;;15.80;;
7693;SDS011;3889;48.162;11.510;2023-02-28T06:46:11;18.48;;;16.77;;
7693;SDS011;3889;48.162;11.510;2023-02-28T06:48:40;18.40;;;16.70;;
7693;SDS011;3889;48.162;11.510;2023-02-28T06:51:11;18.15;;;16.55;;
7693;SDS011;3889;48.162;11.510;2023-02-28T06:53:41;18.60;;;16.92;;
7693;SDS011;3889;48.162;11.510;2023-02-28T06:56:09;18.23;;;16.42;;
7693;SDS011;3889;48.162;11.510;2023-02-28T06:58:38;18.67;;;16.98;;
7693;SDS011;3889;48.162;11.510;2023-02-28T07:01:07;18.42;;;16.73;;
7693;SDS011;3889;48.162;11.510;2023-02-28T07:03:36;20.17;;;18.20;;
7693;SDS011;3889;48.162;11.510;2023-02-28T07:06:04;18.75;;;17.02;;
7693;SDS011;3889;48.162;11.510;2023-02-28T07:08:34;19.25;;;17.48;;
7693;SDS011;3889;48.162;11.510;2023-02-28T07:11:03;19.70;;;17.80;;
7693;SDS011;3889;48.162;11.510;2023-02-28T07:13:31;19.63;;;17.92;;
7693;SDS011;3889;48.162;11.510;2023-02-28T07:16:00;19.92;;;18.02;;
7693;SDS011;3889;48.162;11.510;2023-02-28T07:18:30;18.67;;;16.97;;
7693;SDS011;3889;48.162;11.510;2023-02-28T07:21:01;19.48;;;17.67;;
7693;SDS011;3889;48.162;11.510;2023-02-28T07:23:29;19.58;;;17.88;;
7693;SDS011;3889;48.162;11.510;2023-02-28T07:25:59;19.95;;;18.15;;
7693;SDS011;3889;48.162;11.510;2023-02-28T07:28:26;19.40;;;17.60;;
7693;SDS011;3889;48.162;11.510;2023-02-28T07:30:55;20.02;;;18.02;;
7693;SDS011;3889;48.162;11.510;2023-02-28T07:33:22;20.13;;;18.33;;
7693;SDS011;3889;48.162;11.510;2023-02-28T07:35:51;20.17;;;18.38;;
7693;SDS011;3889;48.162;11.510;2023-02-28T07:38:18;19.73;;;17.85;;
7693;SDS011;3889;48.162;11.510;2023-02-28T07:40:46;19.75;;;17.85;;
7693;SDS011;3889;48.162;11.510;2023-02-28T07:43:15;21.85;;;19.75;;
7693;SDS011;3889;48.162;11.510;2023-02-28T07:45:43;20.55;;;18.55;;
7693;SDS011;3889;48.162;11.510;2023-02-28T07:48:11;20.67;;;18.80;;
7693;SDS011;3889;48.162;11.510;2023-02-28T07:50:38;20.00;;;18.20;;
7693;SDS011;3889;48.162;11.510;2023-02-28T07:53:06;20.30;;;18.50;;
7693;SDS011;3889;48.162;11.510;2023-02-28T07:55:34;20.88;;;18.88;;
7693;SDS011;3889;48.162;11.510;2023-02-28T07:58:02;20.30;;;18.50;;
7693;SDS011;3889;48.162;11.510;2023-02-28T08:00:32;19.27;;;17.58;;
7693;SDS011;3889;48.162;11.510;2023-02-28T08:03:00;20.13;;;18.33;;
7693;SDS011;3889;48.162;11.510;2023-02-28T08:05:27;20.15;;;18.25;;
7693;SDS011;3889;48.162;11.510;2023-02-28T08:07:56;21.30;;;19.20;;
7693;SDS011;3889;48.162;11.510;2023-02-28T08:10:23;20.95;;;18.95;;
7693;SDS011;3889;48.162;11.510;2023-02-28T08:12:51;21.17;;;19.17;;
7693;SDS011;3889;48.162;11.510;2023-02-28T08:15:19;21.10;;;19.20;;
7693;SDS011;3889;48.162;11.510;2023-02-28T08:17:48;20.27;;;18.38;;
7693;SDS011;3889;48.162;11.510;2023-02-28T08:20:16;20.05;;;18.25;;
7693;SDS011;3889;48.162;11.510;2023-02-28T08:22:44;20.95;;;19.05;;
7693;SDS011;3889;48.162;11.510;2023-02-28T08:25:12;20.40;;;18.60;;
7693;SDS011;3889;48.162;11.510;2023-02-28T08:27:40;20.45;;;18.60;;
7693;SDS011;3889;48.162;11.510;2023-02-28T08:30:09;21.20;;;19.17;;
7693;SDS011;3889;48.162;11.510;2023-02-28T08:32:38;20.98;;;19.15;;
7693;SDS011;3889;48.162;11.510;2023-02-28T08:35:08;21.02;;;19.13;;
7693;SDS011;3889;48.162;11.510;2023-02-28T08:37:37;21.42;;;19.42;;
7693;SDS011;3889;48.162;11.510;2023-02-28T08:40:05;21.75;;;19.75;;
7693;SDS011;3889;48.162;11.510;2023-02-28T08:42:34;20.95;;;18.92;;
7693;SDS011;3889;48.162;11.510;2023-02-28T08:45:02;20.67;;;18.77;;
7693;SDS011;3889;48.162;11.510;2023-02-28T08:47:31;21.53;;;19.53;;
7693;SDS011;3889;48.162;11.510;2023-02-28T08:49:59;20.75;;;18.85;;
7693;SDS011;3889;48.162;11.510;2023-02-28T08:52:28;21.40;;;19.45;;
7693;SDS011;3889;48.162;11.510;2023-02-28T08:54:56;21.73;;;19.73;;
7693;SDS011;3889;48.162;11.510;2023-02-28T08:57:24;21.33;;;19.40;;
7693;SDS011;3889;48.162;11.510;2023-02-28T08:59:54;19.90;;;18.10;;
7693;SDS011;3889;48.162;11.510;2023-02-28T09:02:22;19.75;;;17.95;;
7693;SDS011;3889;48.162;11.510;2023-02-28T09:04:49;20.98;;;19.08;;
7693;SDS011;3889;48.162;11.510;2023-02-28T09:07:17;19.73;;;18.03;;
7693;SDS011;3889;48.162;11.510;2023-02-28T09:09:47;20.85;;;18.92;;
7693;SDS011;3889;48.162;11.510;2023-02-28T09:12:21;21.02;;;19.13;;
7693;SDS011;3889;48.162;11.510;2023-02-28T09:14:49;19.67;;;17.88;;
7693;SDS011;3889;48.162;11.510;2023-02-28T09:17:17;20.02;;;18.17;;
7693;SDS011;3889;48.162;11.510;2023-02-28T09:19:47;20.33;;;18.43;;
7693;SDS011;3889;48.162;11.510;2023-02-28T09:22:15;19.73;;;17.92;;
7693;SDS011;3889;48.162;11.510;2023-02-28T09:24:43;19.33;;;17.42;;
7693;SDS011;3889;48.162;11.510;2023-02-28T09:27:13;20.35;;;18.35;;
7693;SDS011;3889;48.162;11.510;2023-02-28T09:29:40;20.23;;;18.42;;
7693;SDS011;3889;48.162;11.510;2023-02-28T09:32:08;20.02;;;18.23;;
7693;SDS011;3889;48.162;11.510;2023-02-28T09:34:36;20.30;;;18.38;;
7693;SDS011;3889;48.162;11.510;2023-02-28T09:37:04;20.20;;;18.40;;
7693;SDS011;3889;48.162;11.510;2023-02-28T09:39:32;19.23;;;17.52;;
7693;SDS011;3889;48.162;11.510;2023-02-28T09:42:00;20.33;;;18.33;;
7693;SDS011;3889;48.162;11.510;2023-02-28T09:44:33;19.48;;;17.67;;
7693;SDS011;3889;48.162;11.510;2023-02-28T09:47:05;20.88;;;18.98;;
7693;SDS011;3889;48.162;11.510;2023-02-28T09:49:40;21.10;;;19.00;;
7693;SDS011;3889;48.162;11.510;2023-02-28T09:52:10;20.60;;;18.67;;
7693;SDS011;3889;48.162;11.510;2023-02-28T09:54:40;21.48;;;19.40;;
7693;SDS011;3889;48.162;11.510;2023-02-28T09:57:10;20.33;;;18.35;;
7693;SDS011;3889;48.162;11.510;2023-02-28T09:59:50;20.48;;;18.52;;
7693;SDS011;3889;48.162;11.510;2023-02-28T10:02:47;19.13;;;17.23;;
7693;SDS011;3889;48.162;11.510;2023-02-28T10:05:21;19.63;;;17.90;;
7693;SDS011;3889;48.162;11.510;2023-02-28T10:07:58;20.10;;;18.20;;
7693;SDS011;3889;48.162;11.510;2023-02-28T10:10:33;20.58;;;18.65;;
7693;SDS011;3889;48.162;11.510;2023-02-28T10:13:06;19.95;;;18.05;;
7693;SDS011;3889;48.162;11.510;2023-02-28T10:15:43;20.35;;;18.38;;
7693;SDS011;3889;48.162;11.510;2023-02-28T10:18:14;19.65;;;17.75;;
7693;SDS011;3889;48.162;11.510;2023-02-28T10:20:48;20.17;;;18.30;;
7693;SDS011;3889;48.162;11.510;2023-02-28T10:23:20;20.20;;;18.40;;
7693;SDS011;3889;48.162;11.510;2023-02-28T10:25:53;19.58;;;17.77;;
7693;SDS011;3889;48.162;11.510;2023-02-28T10:28:24;19.85;;;18.05;;
7693;SDS011;3889;48.162;11.510;2023-02-28T10:30:54;19.85;;;17.95;;
7693;SDS011;3889;48.162;11.510;2023-02-28T10:33:23;19.43;;;17.63;;
7693;SDS011;3889;48.162;11.510;2023-02-28T10:35:52;19.88;;;18.02;;
7693;SDS011;3889;48.162;11.510;2023-02-28T10:38:21;20.25;;;18.35;;
7693;SDS011;3889;48.162;11.510;2023-02-28T10:40:50;19.83;;;18.02;;
7693;SDS011;3889;48.162;11.510;2023-02-28T10:43:19;20.00;;;18.20;;
7693;SDS011;3889;48.162;11.510;2023-02-28T10:46:00;19.50;;;17.70;;
7693;SDS011;3889;48.162;11.510;2023-02-28T10:48:36;19.33;;;17.55;;
7693;SDS011;3889;48.162;11.510;2023-02-28T10:51:05;18.30;;;16.63;;
7693;SDS011;3889;48.162;11.510;2023-02-28T10:53:37;19.80;;;18.00;;
7693;SDS011;3889;48.162;11.510;2023-02-28T10:56:26;19.70;;;17.70;;
7693;SDS011;3889;48.162;11.510;2023-02-28T10:58:56;18.47;;;16.80;;
7693;SDS011;3889;48.162;11.510;2023-02-28T11:01:35;18.03;;;16.43;;
7693;SDS011;3889;48.162;11.510;2023-02-28T11:04:16;17.50;;;15.80;;
7693;SDS011;3889;48.162;11.510;2023-02-28T11:06:45;17.95;;;16.35;;
7693;SDS011;3889;48.162;11.510;2023-02-28T11:09:18;18.55;;;16.90;;
7693;SDS011;3889;48.162;11.510;2023-02-28T11:11:50;18.02;;;16.33;;
7693;SDS011;3889;48.162;11.510;2023-02-28T11:14:19;17.95;;;16.27;;
7693;SDS011;3889;48.162;11.510;2023-02-28T11:16:50;18.05;;;16.25;;
7693;SDS011;3889;48.162;11.510;2023-02-28T11:19:20;18.05;;;16.45;;
7693;SDS011;3889;48.162;11.510;2023-02-28T11:21:53;17.90;;;16.17;;
7693;SDS011;3889;48.162;11.510;2023-02-28T11:24:24;18.63;;;16.92;;
7693;SDS011;3889;48.162;11.510;2023-02-28T11:26:55;18.58;;;16.77;;
7693;SDS011;3889;48.162;11.510;2023-02-28T11:29:24;18.65;;;16.95;;
7693;SDS011;3889;48.162;11.510;2023-02-28T11:32:05;18.60;;;16.90;;
7693;SDS011;3889;48.162;11.510;2023-02-28T11:34:40;17.83;;;16.23;;
7693;SDS011;3889;48.162;11.510;2023-02-28T11:37:12;18.73;;;17.02;;
7693;SDS011;3889;48.162;11.510;2023-02-28T11:39:42;17.88;;;16.08;;
7693;SDS011;3889;48.162;11.510;2023-02-28T11:42:15;17.87;;;16.17;;
7693;SDS011;3889;48.162;11.510;2023-02-28T11:45:09;21.58;;;19.33;;
7693;SDS011;3889;48.162;11.510;2023-02-28T11:47:44;17.75;;;16.08;;
7693;SDS011;3889;48.162;11.510;2023-02-28T11:50:21;17.52;;;15.98;;
7693;SDS011;3889;48.162;11.510;2023-02-28T11:53:01;17.50;;;15.90;;
7693;SDS011;3889;48.162;11.510;2023-02-28T11:55:34;17.83;;;16.02;;
7693;SDS011;3889;48.162;11.510;2023-02-28T11:58:09;17.10;;;15.55;;
7693;SDS011;3889;48.162;11.510;2023-02-28T12:00:50;16.88;;;15.18;;
7693;SDS011;3889;48.162;11.510;2023-02-28T12:03:38;16.20;;;14.65;;
7693;SDS011;3889;48.162;11.510;2023-02-28T12:06:20;16.95;;;15.27;;
7693;SDS011;3889;48.162;11.510;2023-02-28T12:11:44;16.67;;;15.07;;
7693;SDS011;3889;48.162;11.510;2023-02-28T12:14:22;16.80;;;15.23;;
7693;SDS011;3889;48.162;11.510;2023-02-28T12:17:02;16.63;;;15.05;;
7693;SDS011;3889;48.162;11.510;2023-02-28T12:19:41;16.75;;;15.23;;
7693;SDS011;3889;48.162;11.510;2023-02-28T12:22:19;15.80;;;14.30;;
7693;SDS011;3889;48.162;11.510;2023-02-28T12:24:59;18.65;;;16.75;;
7693;SDS011;3889;48.162;11.510;2023-02-28T12:27:51;14.95;;;13.65;;
7693;SDS011;3889;48.162;11.510;2023-02-28T12:30:21;15.33;;;13.93;;
7693;SDS011;3889;48.162;11.510;2023-02-28T12:32:52;15.82;;;14.35;;
7693;SDS011;3889;48.162;11.510;2023-02-28T12:35:26;15.43;;;14.02;;
7693;SDS011;3889;48.162;11.510;2023-02-28T12:38:02;15.18;;;13.68;;
7693;SDS011;3889;48.162;11.510;2023-02-28T12:40:38;14.75;;;13.38;;
7693;SDS011;3889;48.162;11.510;2023-02-28T12:43:12;15.40;;;13.80;;
7693;SDS011;3889;48.162;11.510;2023-02-28T12:45:44;15.52;;;14.13;;
7693;SDS011;3889;48.162;11.510;2023-02-28T12:48:17;16.38;;;14.80;;
7693;SDS011;3889;48.162;11.510;2023-02-28T12:50:50;15.85;;;14.35;;
7693;SDS011;3889;48.162;11.510;2023-02-28T12:53:21;15.05;;;13.65;;
7693;SDS011;3889;48.162;11.510;2023-02-28T12:55:56;14.43;;;13.13;;
7693;SDS011;3889;48.162;11.510;2023-02-28T12:58:36;15.18;;;13.73;;
7693;SDS011;3889;48.162;11.510;2023-02-28T13:01:20;14.27;;;13.02;;
7693;SDS011;3889;48.162;11.510;2023-02-28T13:04:17;15.65;;;14.02;;
7693;SDS011;3889;48.162;11.510;2023-02-28T13:07:16;14.85;;;13.45;;
7693;SDS011;3889;48.162;11.510;2023-02-28T13:10:00;14.70;;;13.48;;
7693;SDS011;3889;48.162;11.510;2023-02-28T13:12:32;14.68;;;13.38;;
7693;SDS011;3889;48.162;11.510;2023-02-28T13:15:02;14.50;;;13.20;;
7693;SDS011;3889;48.162;11.510;2023-02-28T13:17:38;14.88;;;13.48;;
7693;SDS011;3889;48.162;11.510;2023-02-28T13:20:14;15.68;;;14.25;;
7693;SDS011;3889;48.162;11.510;2023-02-28T13:22:47;14.82;;;13.45;;
7693;SDS011;3889;48.162;11.510;2023-02-28T13:34:46;14.18;;;12.88;;
7693;SDS011;3889;48.162;11.510;2023-02-28T13:44:11;14.50;;;13.20;;
7693;SDS011;3889;48.162;11.510;2023-02-28T13:49:45;14.13;;;12.82;;
7693;SDS011;3889;48.162;11.510;2023-02-28T13:52:15;14.48;;;13.07;;
7693;SDS011;3889;48.162;11.510;2023-02-28T13:58:04;14.93;;;13.43;;
7693;SDS011;3889;48.162;11.510;2023-02-28T14:00:49;15.23;;;13.82;;
7693;SDS011;3889;48.162;11.510;2023-02-28T14:06:25;14.98;;;13.60;;
7693;SDS011;3889;48.162;11.510;2023-02-28T14:08:57;14.50;;;13.20;;
7693;SDS011;3889;48.162;11.510;2023-02-28T14:11:29;15.55;;;14.05;;
7693;SDS011;3889;48.162;11.510;2023-02-28T14:13:59;14.00;;;12.80;;
7693;SDS011;3889;48.162;11.510;2023-02-28T14:16:35;14.45;;;12.95;;
7693;SDS011;3889;48.162;11.510;2023-02-28T14:19:10;14.48;;;13.07;;
7693;SDS011;3889;48.162;11.510;2023-02-28T14:21:43;14.73;;;13.25;;
7693;SDS011;3889;48.162;11.510;2023-02-28T14:24:34;14.30;;;12.90;;
7693;SDS011;3889;48.162;11.510;2023-02-28T14:27:26;14.50;;;13.10;;
7693;SDS011;3889;48.162;11.510;2023-02-28T14:30:10;13.90;;;12.60;;
7693;SDS011;3889;48.162;11.510;2023-02-28T14:32:58;14.02;;;12.82;;
7693;SDS011;3889;48.162;11.510;2023-02-28T14:35:45;13.48;;;12.23;;
7693;SDS011;3889;48.162;11.510;2023-02-28T14:38:23;17.83;;;14.20;;
7693;SDS011;3889;48.162;11.510;2023-02-28T14:40:55;14.32;;;13.02;;
7693;SDS011;3889;48.162;11.510;2023-02-28T14:43:27;14.10;;;12.82;;
7693;SDS011;3889;48.162;11.510;2023-02-28T14:45:56;13.88;;;12.55;;
7693;SDS011;3889;48.162;11.510;2023-02-28T14:48:26;14.67;;;13.30;;
7693;SDS011;3889;48.162;11.510;2023-02-28T14:50:56;14.13;;;12.80;;
7693;SDS011;3889;48.162;11.510;2023-02-28T14:53:26;15.33;;;13.83;;
7693;SDS011;3889;48.162;11.510;2023-02-28T14:55:56;13.87;;;12.67;;
7693;SDS011;3889;48.162;11.510;2023-02-28T14:58:24;14.63;;;13.25;;
7693;SDS011;3889;48.162;11.510;2023-02-28T15:00:55;13.65;;;12.35;;
7693;SDS011;3889;48.162;11.510;2023-02-28T15:03:28;14.20;;;12.68;;
7693;SDS011;3889;48.162;11.510;2023-02-28T15:05:59;13.60;;;12.40;;
7693;SDS011;3889;48.162;11.510;2023-02-28T15:08:28;13.52;;;12.23;;
7693;SDS011;3889;48.162;11.510;2023-02-28T15:11:01;14.43;;;13.05;;
7693;SDS011;3889;48.162;11.510;2023-02-28T15:13:35;13.75;;;12.45;;
7693;SDS011;3889;48.162;11.510;2023-02-28T15:16:08;13.80;;;12.52;;
7693;SDS011;3889;48.162;11.510;2023-02-28T15:18:42;13.73;;;12.40;;
7693;SDS011;3889;48.162;11.510;2023-02-28T15:21:14;13.65;;;12.35;;
7693;SDS011;3889;48.162;11.510;2023-02-28T15:23:45;13.25;;;12.13;;
7693;SDS011;3889;48.162;11.510;2023-02-28T15:26:17;13.65;;;12.43;;
7693;SDS011;3889;48.162;11.510;2023-02-28T15:28:49;13.20;;;11.90;;
7693;SDS011;3889;48.162;11.510;2023-02-28T15:31:21;13.93;;;12.50;;
7693;SDS011;3889;48.162;11.510;2023-02-28T15:33:53;14.13;;;12.73;;
7693;SDS011;3889;48.162;11.510;2023-02-28T15:36:24;14.20;;;13.00;;
7693;SDS011;3889;48.162;11.510;2023-02-28T15:38:56;13.63;;;12.35;;
7693;SDS011;3889;48.162;11.510;2023-02-28T15:41:39;14.05;;;12.73;;
7693;SDS011;3889;48.162;11.510;2023-02-28T15:44:15;13.25;;;12.05;;
7693;SDS011;3889;48.162;11.510;2023-02-28T15:46:52;13.35;;;12.23;;